sensor_id;sensor_type;location;lat;lon;timestamp;P1;durP1;ratioP1;P2;durP2;ratioP2
48861;SDS011;34681;49.188;-0.374;2023-04-08T00:02:14;3.70;;;3.47;;
48861;SDS011;34681;49.188;-0.374;2023-04-08T00:04:40;4.30;;;3.50;;
48861;SDS011;34681;49.188;-0.374;2023-04-08T00:07:05;3.50;;;3.30;;
48861;SDS011;34681;49.188;-0.374;2023-04-08T00:09:31;6.17;;;3.60;;
48861;SDS011;34681;49.188;-0.374;2023-04-08T00:11:56;3.43;;;3.23;;
48861;SDS011;34681;49.188;-0.374;2023-04-08T00:14:22;3.73;;;3.43;;
48861;SDS011;34681;49.188;-0.374;2023-04-08T00:16:47;4.03;;;3.33;;
48861;SDS011;34681;49.188;-0.374;2023-04-08T00:19:13;7.07;;;6.33;;
48861;SDS011;34681;49.188;-0.374;2023-04-08T00:21:38;5.20;;;4.53;;
48861;SDS011;34681;49.188;-0.374;2023-04-08T00:24:03;6.33;;;4.90;;
48861;SDS011;34681;49.188;-0.374;2023-04-08T00:26:29;4.30;;;3.93;;
48861;SDS011;34681;49.188;-0.374;2023-04-08T00:28:54;4.00;;;3.60;;
48861;SDS011;34681;49.188;-0.374;2023-04-08T00:31:20;8.70;;;3.70;;
48861;SDS011;34681;49.188;-0.374;2023-04-08T00:33:45;4.60;;;3.73;;
48861;SDS011;34681;49.188;-0.374;2023-04-08T00:36:11;3.87;;;3.63;;
48861;SDS011;34681;49.188;-0.374;2023-04-08T00:38:36;4.53;;;4.13;;
48861;SDS011;34681;49.188;-0.374;2023-04-08T00:41:01;3.80;;;3.40;;
48861;SDS011;34681;49.188;-0.374;2023-04-08T00:43:27;3.93;;;3.67;;
48861;SDS011;34681;49.188;-0.374;2023-04-08T00:45:52;4.13;;;3.40;;
48861;SDS011;34681;49.188;-0.374;2023-04-08T00:48:17;3.57;;;3.33;;
48861;SDS011;34681;49.188;-0.374;2023-04-08T00:50:43;3.63;;;3.33;;
48861;SDS011;34681;49.188;-0.374;2023-04-08T00:53:08;3.90;;;3.67;;
48861;SDS011;34681;49.188;-0.374;2023-04-08T00:55:34;5.83;;;4.57;;
48861;SDS011;34681;49.188;-0.374;2023-04-08T00:57:59;6.17;;;4.80;;
48861;SDS011;34681;49.188;-0.374;2023-04-08T01:00:25;6.50;;;6.00;;
48861;SDS011;34681;49.188;-0.374;2023-04-08T01:05:49;7.37;;;6.67;;
48861;SDS011;34681;49.188;-0.374;2023-04-08T01:08:18;9.00;;;7.53;;
48861;SDS011;34681;49.188;-0.374;2023-04-08T01:10:46;7.43;;;6.80;;
48861;SDS011;34681;49.188;-0.374;2023-04-08T01:13:16;10.07;;;7.57;;
48861;SDS011;34681;49.188;-0.374;2023-04-08T01:15:43;7.23;;;6.60;;
48861;SDS011;34681;49.188;-0.374;2023-04-08T01:18:10;8.47;;;6.90;;
48861;SDS011;34681;49.188;-0.374;2023-04-08T01:20:37;7.87;;;7.07;;
48861;SDS011;34681;49.188;-0.374;2023-04-08T01:25:30;7.63;;;7.13;;
48861;SDS011;34681;49.188;-0.374;2023-04-08T01:27:59;7.77;;;7.07;;
48861;SDS011;34681;49.188;-0.374;2023-04-08T01:30:25;7.93;;;7.20;;
48861;SDS011;34681;49.188;-0.374;2023-04-08T01:32:54;7.57;;;6.93;;
48861;SDS011;34681;49.188;-0.374;2023-04-08T01:35:21;7.67;;;6.87;;
48861;SDS011;34681;49.188;-0.374;2023-04-08T01:37:50;8.07;;;7.27;;
48861;SDS011;34681;49.188;-0.374;2023-04-08T01:40:18;7.37;;;6.67;;
48861;SDS011;34681;49.188;-0.374;2023-04-08T01:42:44;7.70;;;6.90;;
48861;SDS011;34681;49.188;-0.374;2023-04-08T01:45:12;7.97;;;7.37;;
48861;SDS011;34681;49.188;-0.374;2023-04-08T01:47:39;8.00;;;7.20;;
48861;SDS011;34681;49.188;-0.374;2023-04-08T01:50:06;7.57;;;7.07;;
48861;SDS011;34681;49.188;-0.374;2023-04-08T01:52:34;7.30;;;6.60;;
48861;SDS011;34681;49.188;-0.374;2023-04-08T01:55:01;8.40;;;6.93;;
48861;SDS011;34681;49.188;-0.374;2023-04-08T01:57:27;7.77;;;6.97;;
48861;SDS011;34681;49.188;-0.374;2023-04-08T01:59:58;10.43;;;7.90;;
48861;SDS011;34681;49.188;-0.374;2023-04-08T02:02:26;8.17;;;7.37;;
48861;SDS011;34681;49.188;-0.374;2023-04-08T02:04:53;7.20;;;6.50;;
48861;SDS011;34681;49.188;-0.374;2023-04-08T02:07:19;6.57;;;6.07;;
48861;SDS011;34681;49.188;-0.374;2023-04-08T02:09:44;6.13;;;5.60;;
48861;SDS011;34681;49.188;-0.374;2023-04-08T02:12:10;6.00;;;5.57;;
48861;SDS011;34681;49.188;-0.374;2023-04-08T02:14:35;5.93;;;5.43;;
48861;SDS011;34681;49.188;-0.374;2023-04-08T02:17:07;5.73;;;5.33;;
48861;SDS011;34681;49.188;-0.374;2023-04-08T02:19:39;6.70;;;6.10;;
48861;SDS011;34681;49.188;-0.374;2023-04-08T02:22:18;5.50;;;5.10;;
48861;SDS011;34681;49.188;-0.374;2023-04-08T02:25:07;6.07;;;5.50;;
48861;SDS011;34681;49.188;-0.374;2023-04-08T02:27:35;6.20;;;5.80;;
48861;SDS011;34681;49.188;-0.374;2023-04-08T02:30:03;5.80;;;5.30;;
48861;SDS011;34681;49.188;-0.374;2023-04-08T02:32:31;6.20;;;5.70;;
48861;SDS011;34681;49.188;-0.374;2023-04-08T02:34:58;4.83;;;4.50;;
48861;SDS011;34681;49.188;-0.374;2023-04-08T02:37:24;5.80;;;5.30;;
48861;SDS011;34681;49.188;-0.374;2023-04-08T02:39:51;5.53;;;5.13;;
48861;SDS011;34681;49.188;-0.374;2023-04-08T02:42:17;6.00;;;5.60;;
48861;SDS011;34681;49.188;-0.374;2023-04-08T02:44:42;5.70;;;5.20;;
48861;SDS011;34681;49.188;-0.374;2023-04-08T02:47:08;6.87;;;6.10;;
48861;SDS011;34681;49.188;-0.374;2023-04-08T02:49:33;6.60;;;6.00;;
48861;SDS011;34681;49.188;-0.374;2023-04-08T02:51:58;7.73;;;5.63;;
48861;SDS011;34681;49.188;-0.374;2023-04-08T02:54:24;5.93;;;5.53;;
48861;SDS011;34681;49.188;-0.374;2023-04-08T02:56:49;7.47;;;6.87;;
48861;SDS011;34681;49.188;-0.374;2023-04-08T02:59:15;7.27;;;6.67;;
48861;SDS011;34681;49.188;-0.374;2023-04-08T03:01:41;7.33;;;6.60;;
48861;SDS011;34681;49.188;-0.374;2023-04-08T03:04:06;8.80;;;6.40;;
48861;SDS011;34681;49.188;-0.374;2023-04-08T03:06:32;6.53;;;6.03;;
48861;SDS011;34681;49.188;-0.374;2023-04-08T03:08:57;7.27;;;6.50;;
48861;SDS011;34681;49.188;-0.374;2023-04-08T03:11:22;6.47;;;5.97;;
48861;SDS011;34681;49.188;-0.374;2023-04-08T03:13:48;7.57;;;6.97;;
48861;SDS011;34681;49.188;-0.374;2023-04-08T03:16:13;6.97;;;6.33;;
48861;SDS011;34681;49.188;-0.374;2023-04-08T03:18:38;7.77;;;7.07;;
48861;SDS011;34681;49.188;-0.374;2023-04-08T03:21:04;7.87;;;7.17;;
48861;SDS011;34681;49.188;-0.374;2023-04-08T03:23:29;7.53;;;6.33;;
48861;SDS011;34681;49.188;-0.374;2023-04-08T03:25:55;6.50;;;6.00;;
48861;SDS011;34681;49.188;-0.374;2023-04-08T03:28:20;5.97;;;5.53;;
48861;SDS011;34681;49.188;-0.374;2023-04-08T03:30:45;6.20;;;5.80;;
48861;SDS011;34681;49.188;-0.374;2023-04-08T03:33:11;6.50;;;6.00;;
48861;SDS011;34681;49.188;-0.374;2023-04-08T03:35:36;6.17;;;5.67;;
48861;SDS011;34681;49.188;-0.374;2023-04-08T03:38:02;6.90;;;6.30;;
48861;SDS011;34681;49.188;-0.374;2023-04-08T03:40:28;6.40;;;5.90;;
48861;SDS011;34681;49.188;-0.374;2023-04-08T03:42:53;7.50;;;6.80;;
48861;SDS011;34681;49.188;-0.374;2023-04-08T03:45:19;7.00;;;6.40;;
48861;SDS011;34681;49.188;-0.374;2023-04-08T03:47:44;7.63;;;7.07;;
48861;SDS011;34681;49.188;-0.374;2023-04-08T03:50:10;6.07;;;5.67;;
48861;SDS011;34681;49.188;-0.374;2023-04-08T03:52:35;6.47;;;5.97;;
48861;SDS011;34681;49.188;-0.374;2023-04-08T03:55:01;6.30;;;5.80;;
48861;SDS011;34681;49.188;-0.374;2023-04-08T03:57:26;7.03;;;6.20;;
48861;SDS011;34681;49.188;-0.374;2023-04-08T03:59:51;6.50;;;6.00;;
48861;SDS011;34681;49.188;-0.374;2023-04-08T04:02:17;6.40;;;5.80;;
48861;SDS011;34681;49.188;-0.374;2023-04-08T04:04:42;6.37;;;5.40;;
48861;SDS011;34681;49.188;-0.374;2023-04-08T04:07:08;5.87;;;5.37;;
48861;SDS011;34681;49.188;-0.374;2023-04-08T04:09:33;6.13;;;5.67;;
48861;SDS011;34681;49.188;-0.374;2023-04-08T04:11:59;6.53;;;6.03;;
48861;SDS011;34681;49.188;-0.374;2023-04-08T04:14:24;5.27;;;4.87;;
48861;SDS011;34681;49.188;-0.374;2023-04-08T04:16:50;5.97;;;5.47;;
48861;SDS011;34681;49.188;-0.374;2023-04-08T04:19:15;6.27;;;5.87;;
48861;SDS011;34681;49.188;-0.374;2023-04-08T04:21:42;6.23;;;5.63;;
48861;SDS011;34681;49.188;-0.374;2023-04-08T04:24:07;5.67;;;5.37;;
48861;SDS011;34681;49.188;-0.374;2023-04-08T04:26:33;6.20;;;5.57;;
48861;SDS011;34681;49.188;-0.374;2023-04-08T04:28:58;5.37;;;5.00;;
48861;SDS011;34681;49.188;-0.374;2023-04-08T04:31:23;5.13;;;4.83;;
48861;SDS011;34681;49.188;-0.374;2023-04-08T04:33:52;5.07;;;4.67;;
48861;SDS011;34681;49.188;-0.374;2023-04-08T04:36:18;5.93;;;5.33;;
48861;SDS011;34681;49.188;-0.374;2023-04-08T04:38:44;5.00;;;4.70;;
48861;SDS011;34681;49.188;-0.374;2023-04-08T04:41:10;4.93;;;4.63;;
48861;SDS011;34681;49.188;-0.374;2023-04-08T04:43:35;5.47;;;5.07;;
48861;SDS011;34681;49.188;-0.374;2023-04-08T04:46:01;6.13;;;5.63;;
48861;SDS011;34681;49.188;-0.374;2023-04-08T04:48:30;5.80;;;5.30;;
48861;SDS011;34681;49.188;-0.374;2023-04-08T04:50:57;5.73;;;5.33;;
48861;SDS011;34681;49.188;-0.374;2023-04-08T04:53:25;6.20;;;5.60;;
48861;SDS011;34681;49.188;-0.374;2023-04-08T04:55:50;5.67;;;5.17;;
48861;SDS011;34681;49.188;-0.374;2023-04-08T04:58:16;6.13;;;5.60;;
48861;SDS011;34681;49.188;-0.374;2023-04-08T05:00:41;7.30;;;6.63;;
48861;SDS011;34681;49.188;-0.374;2023-04-08T05:03:07;7.13;;;6.43;;
48861;SDS011;34681;49.188;-0.374;2023-04-08T05:05:33;5.10;;;4.80;;
48861;SDS011;34681;49.188;-0.374;2023-04-08T05:07:58;7.47;;;6.83;;
48861;SDS011;34681;49.188;-0.374;2023-04-08T05:10:23;7.37;;;6.67;;
48861;SDS011;34681;49.188;-0.374;2023-04-08T05:12:49;7.07;;;5.70;;
48861;SDS011;34681;49.188;-0.374;2023-04-08T05:15:14;7.53;;;6.83;;
48861;SDS011;34681;49.188;-0.374;2023-04-08T05:17:40;8.20;;;6.40;;
48861;SDS011;34681;49.188;-0.374;2023-04-08T05:20:05;8.47;;;6.20;;
48861;SDS011;34681;49.188;-0.374;2023-04-08T05:22:31;6.00;;;5.43;;
48861;SDS011;34681;49.188;-0.374;2023-04-08T05:24:57;6.70;;;6.00;;
48861;SDS011;34681;49.188;-0.374;2023-04-08T05:27:22;7.10;;;6.40;;
48861;SDS011;34681;49.188;-0.374;2023-04-08T05:29:47;7.97;;;6.80;;
48861;SDS011;34681;49.188;-0.374;2023-04-08T05:32:13;6.23;;;5.80;;
48861;SDS011;34681;49.188;-0.374;2023-04-08T05:34:40;6.37;;;5.77;;
48861;SDS011;34681;49.188;-0.374;2023-04-08T05:37:05;5.23;;;4.87;;
48861;SDS011;34681;49.188;-0.374;2023-04-08T05:39:31;6.23;;;5.63;;
48861;SDS011;34681;49.188;-0.374;2023-04-08T05:41:56;5.90;;;5.30;;
48861;SDS011;34681;49.188;-0.374;2023-04-08T05:44:21;6.93;;;6.30;;
48861;SDS011;34681;49.188;-0.374;2023-04-08T05:46:47;7.50;;;6.67;;
48861;SDS011;34681;49.188;-0.374;2023-04-08T05:49:12;6.40;;;5.50;;
48861;SDS011;34681;49.188;-0.374;2023-04-08T05:51:38;6.23;;;5.73;;
48861;SDS011;34681;49.188;-0.374;2023-04-08T05:54:03;8.03;;;7.20;;
48861;SDS011;34681;49.188;-0.374;2023-04-08T05:56:29;9.00;;;7.50;;
48861;SDS011;34681;49.188;-0.374;2023-04-08T05:58:56;7.37;;;6.70;;
48861;SDS011;34681;49.188;-0.374;2023-04-08T06:01:21;7.87;;;7.07;;
48861;SDS011;34681;49.188;-0.374;2023-04-08T06:03:47;7.30;;;6.70;;
48861;SDS011;34681;49.188;-0.374;2023-04-08T06:06:13;7.13;;;6.63;;
48861;SDS011;34681;49.188;-0.374;2023-04-08T06:08:38;6.73;;;6.20;;
48861;SDS011;34681;49.188;-0.374;2023-04-08T06:11:04;6.20;;;5.77;;
48861;SDS011;34681;49.188;-0.374;2023-04-08T06:13:29;5.73;;;5.20;;
48861;SDS011;34681;49.188;-0.374;2023-04-08T06:15:55;6.17;;;5.60;;
48861;SDS011;34681;49.188;-0.374;2023-04-08T06:18:20;6.00;;;5.50;;
48861;SDS011;34681;49.188;-0.374;2023-04-08T06:20:46;6.90;;;6.20;;
48861;SDS011;34681;49.188;-0.374;2023-04-08T06:23:11;5.77;;;5.47;;
48861;SDS011;34681;49.188;-0.374;2023-04-08T06:25:37;6.27;;;5.70;;
48861;SDS011;34681;49.188;-0.374;2023-04-08T06:28:02;5.67;;;5.23;;
48861;SDS011;34681;49.188;-0.374;2023-04-08T06:30:28;7.77;;;5.80;;
48861;SDS011;34681;49.188;-0.374;2023-04-08T06:32:53;6.20;;;5.70;;
48861;SDS011;34681;49.188;-0.374;2023-04-08T06:35:18;5.50;;;5.10;;
48861;SDS011;34681;49.188;-0.374;2023-04-08T06:37:44;5.50;;;5.20;;
48861;SDS011;34681;49.188;-0.374;2023-04-08T06:40:09;5.40;;;5.10;;
48861;SDS011;34681;49.188;-0.374;2023-04-08T06:42:35;5.30;;;5.00;;
48861;SDS011;34681;49.188;-0.374;2023-04-08T06:45:02;9.20;;;5.07;;
48861;SDS011;34681;49.188;-0.374;2023-04-08T06:47:28;5.53;;;4.93;;
48861;SDS011;34681;49.188;-0.374;2023-04-08T06:49:54;4.80;;;4.30;;
48861;SDS011;34681;49.188;-0.374;2023-04-08T06:52:19;5.27;;;4.87;;
48861;SDS011;34681;49.188;-0.374;2023-04-08T06:54:47;4.93;;;4.47;;
48861;SDS011;34681;49.188;-0.374;2023-04-08T06:57:13;4.80;;;4.40;;
48861;SDS011;34681;49.188;-0.374;2023-04-08T06:59:38;4.20;;;3.90;;
48861;SDS011;34681;49.188;-0.374;2023-04-08T07:02:03;6.83;;;4.67;;
48861;SDS011;34681;49.188;-0.374;2023-04-08T07:04:29;5.07;;;4.67;;
48861;SDS011;34681;49.188;-0.374;2023-04-08T07:06:54;3.70;;;3.40;;
48861;SDS011;34681;49.188;-0.374;2023-04-08T07:09:19;4.30;;;3.90;;
48861;SDS011;34681;49.188;-0.374;2023-04-08T07:11:45;3.90;;;3.63;;
48861;SDS011;34681;49.188;-0.374;2023-04-08T07:14:10;5.17;;;4.03;;
48861;SDS011;34681;49.188;-0.374;2023-04-08T07:16:36;5.87;;;5.37;;
48861;SDS011;34681;49.188;-0.374;2023-04-08T07:19:01;4.70;;;4.40;;
48861;SDS011;34681;49.188;-0.374;2023-04-08T07:21:26;5.13;;;4.50;;
48861;SDS011;34681;49.188;-0.374;2023-04-08T07:23:52;6.57;;;4.93;;
48861;SDS011;34681;49.188;-0.374;2023-04-08T07:26:17;6.70;;;4.77;;
48861;SDS011;34681;49.188;-0.374;2023-04-08T07:28:43;5.33;;;4.83;;
48861;SDS011;34681;49.188;-0.374;2023-04-08T07:31:09;4.97;;;4.50;;
48861;SDS011;34681;49.188;-0.374;2023-04-08T07:33:36;5.53;;;4.93;;
48861;SDS011;34681;49.188;-0.374;2023-04-08T07:36:01;7.43;;;5.73;;
48861;SDS011;34681;49.188;-0.374;2023-04-08T07:38:27;5.63;;;5.13;;
48861;SDS011;34681;49.188;-0.374;2023-04-08T07:40:52;7.00;;;4.97;;
48861;SDS011;34681;49.188;-0.374;2023-04-08T07:43:17;7.37;;;6.70;;
48861;SDS011;34681;49.188;-0.374;2023-04-08T07:45:43;5.90;;;5.40;;
48861;SDS011;34681;49.188;-0.374;2023-04-08T07:48:08;8.10;;;6.80;;
48861;SDS011;34681;49.188;-0.374;2023-04-08T07:50:35;8.30;;;7.10;;
48861;SDS011;34681;49.188;-0.374;2023-04-08T07:53:01;8.30;;;7.60;;
48861;SDS011;34681;49.188;-0.374;2023-04-08T07:55:27;6.20;;;5.33;;
48861;SDS011;34681;49.188;-0.374;2023-04-08T07:57:52;5.70;;;5.30;;
48861;SDS011;34681;49.188;-0.374;2023-04-08T08:00:17;7.60;;;6.97;;
48861;SDS011;34681;49.188;-0.374;2023-04-08T08:02:46;5.77;;;5.37;;
48861;SDS011;34681;49.188;-0.374;2023-04-08T08:05:12;7.00;;;6.30;;
48861;SDS011;34681;49.188;-0.374;2023-04-08T08:07:37;6.80;;;6.20;;
48861;SDS011;34681;49.188;-0.374;2023-04-08T08:10:03;8.53;;;6.77;;
48861;SDS011;34681;49.188;-0.374;2023-04-08T08:12:28;5.93;;;5.53;;
48861;SDS011;34681;49.188;-0.374;2023-04-08T08:14:54;8.27;;;6.93;;
48861;SDS011;34681;49.188;-0.374;2023-04-08T08:17:22;7.63;;;6.93;;
48861;SDS011;34681;49.188;-0.374;2023-04-08T08:19:49;7.30;;;6.07;;
48861;SDS011;34681;49.188;-0.374;2023-04-08T08:22:15;5.90;;;5.33;;
48861;SDS011;34681;49.188;-0.374;2023-04-08T08:24:40;7.00;;;6.40;;
48861;SDS011;34681;49.188;-0.374;2023-04-08T08:27:08;7.77;;;7.13;;
48861;SDS011;34681;49.188;-0.374;2023-04-08T08:29:34;7.00;;;6.30;;
48861;SDS011;34681;49.188;-0.374;2023-04-08T08:32:01;7.50;;;6.70;;
48861;SDS011;34681;49.188;-0.374;2023-04-08T08:34:27;8.40;;;7.60;;
48861;SDS011;34681;49.188;-0.374;2023-04-08T08:36:52;8.13;;;7.00;;
48861;SDS011;34681;49.188;-0.374;2023-04-08T08:39:17;10.47;;;7.40;;
48861;SDS011;34681;49.188;-0.374;2023-04-08T08:41:43;7.90;;;7.20;;
48861;SDS011;34681;49.188;-0.374;2023-04-08T08:44:08;7.87;;;6.63;;
48861;SDS011;34681;49.188;-0.374;2023-04-08T08:46:34;7.00;;;6.37;;
48861;SDS011;34681;49.188;-0.374;2023-04-08T08:48:59;6.77;;;6.10;;
48861;SDS011;34681;49.188;-0.374;2023-04-08T08:51:25;5.43;;;4.93;;
48861;SDS011;34681;49.188;-0.374;2023-04-08T08:53:51;6.47;;;5.57;;
48861;SDS011;34681;49.188;-0.374;2023-04-08T08:56:17;7.87;;;6.63;;
48861;SDS011;34681;49.188;-0.374;2023-04-08T08:58:42;5.47;;;4.97;;
48861;SDS011;34681;49.188;-0.374;2023-04-08T09:06:34;6.53;;;6.03;;
48861;SDS011;34681;49.188;-0.374;2023-04-08T09:09:00;6.03;;;5.40;;
48861;SDS011;34681;49.188;-0.374;2023-04-08T09:11:26;6.10;;;5.40;;
48861;SDS011;34681;49.188;-0.374;2023-04-08T09:13:52;6.53;;;5.93;;
48861;SDS011;34681;49.188;-0.374;2023-04-08T09:16:18;7.47;;;5.40;;
48861;SDS011;34681;49.188;-0.374;2023-04-08T09:18:44;8.50;;;5.73;;
48861;SDS011;34681;49.188;-0.374;2023-04-08T09:21:11;6.60;;;6.10;;
48861;SDS011;34681;49.188;-0.374;2023-04-08T09:26:11;5.53;;;5.03;;
48861;SDS011;34681;49.188;-0.374;2023-04-08T09:28:40;7.23;;;6.13;;
48861;SDS011;34681;49.188;-0.374;2023-04-08T09:31:20;5.43;;;4.93;;
48861;SDS011;34681;49.188;-0.374;2023-04-08T09:33:48;7.27;;;6.57;;
48861;SDS011;34681;49.188;-0.374;2023-04-08T09:36:14;7.23;;;5.90;;
48861;SDS011;34681;49.188;-0.374;2023-04-08T09:38:40;5.60;;;5.10;;
48861;SDS011;34681;49.188;-0.374;2023-04-08T09:41:06;6.23;;;5.73;;
48861;SDS011;34681;49.188;-0.374;2023-04-08T09:43:35;7.77;;;6.10;;
48861;SDS011;34681;49.188;-0.374;2023-04-08T09:46:13;6.10;;;5.57;;
48861;SDS011;34681;49.188;-0.374;2023-04-08T09:48:41;6.30;;;5.77;;
48861;SDS011;34681;49.188;-0.374;2023-04-08T09:51:14;6.67;;;6.07;;
48861;SDS011;34681;49.188;-0.374;2023-04-08T09:53:41;6.70;;;4.93;;
48861;SDS011;34681;49.188;-0.374;2023-04-08T09:56:11;6.40;;;5.83;;
48861;SDS011;34681;49.188;-0.374;2023-04-08T09:58:38;4.87;;;4.53;;
48861;SDS011;34681;49.188;-0.374;2023-04-08T10:01:11;7.07;;;6.17;;
48861;SDS011;34681;49.188;-0.374;2023-04-08T10:03:39;6.30;;;5.50;;
48861;SDS011;34681;49.188;-0.374;2023-04-08T10:06:09;5.40;;;5.00;;
48861;SDS011;34681;49.188;-0.374;2023-04-08T10:08:36;6.30;;;5.70;;
48861;SDS011;34681;49.188;-0.374;2023-04-08T10:11:01;6.30;;;5.70;;
48861;SDS011;34681;49.188;-0.374;2023-04-08T10:13:27;6.13;;;5.43;;
48861;SDS011;34681;49.188;-0.374;2023-04-08T10:18:51;4.70;;;4.30;;
48861;SDS011;34681;49.188;-0.374;2023-04-08T10:24:15;4.40;;;4.17;;
48861;SDS011;34681;49.188;-0.374;2023-04-08T10:26:45;6.07;;;4.27;;
48861;SDS011;34681;49.188;-0.374;2023-04-08T10:31:53;4.53;;;4.20;;
48861;SDS011;34681;49.188;-0.374;2023-04-08T10:34:22;4.63;;;4.23;;
48861;SDS011;34681;49.188;-0.374;2023-04-08T10:36:51;5.20;;;4.67;;
48861;SDS011;34681;49.188;-0.374;2023-04-08T10:39:19;7.00;;;4.50;;
48861;SDS011;34681;49.188;-0.374;2023-04-08T10:41:46;4.70;;;4.30;;
48861;SDS011;34681;49.188;-0.374;2023-04-08T10:44:23;5.50;;;5.10;;
48861;SDS011;34681;49.188;-0.374;2023-04-08T10:46:51;4.50;;;4.20;;
48861;SDS011;34681;49.188;-0.374;2023-04-08T10:49:17;5.90;;;5.50;;
48861;SDS011;34681;49.188;-0.374;2023-04-08T10:51:43;5.87;;;5.37;;
48861;SDS011;34681;49.188;-0.374;2023-04-08T10:54:10;4.97;;;4.57;;
48861;SDS011;34681;49.188;-0.374;2023-04-08T10:56:42;6.40;;;4.77;;
48861;SDS011;34681;49.188;-0.374;2023-04-08T10:59:15;5.67;;;4.83;;
48861;SDS011;34681;49.188;-0.374;2023-04-08T11:01:42;4.90;;;4.53;;
48861;SDS011;34681;49.188;-0.374;2023-04-08T11:04:13;5.50;;;5.07;;
48861;SDS011;34681;49.188;-0.374;2023-04-08T11:06:40;6.70;;;6.10;;
48861;SDS011;34681;49.188;-0.374;2023-04-08T11:09:07;7.23;;;6.57;;
48861;SDS011;34681;49.188;-0.374;2023-04-08T11:11:33;13.10;;;8.80;;
48861;SDS011;34681;49.188;-0.374;2023-04-08T11:13:58;6.87;;;6.20;;
48861;SDS011;34681;49.188;-0.374;2023-04-08T11:16:24;16.97;;;15.37;;
48861;SDS011;34681;49.188;-0.374;2023-04-08T11:18:51;23.00;;;19.60;;
48861;SDS011;34681;49.188;-0.374;2023-04-08T11:21:18;28.00;;;21.33;;
48861;SDS011;34681;49.188;-0.374;2023-04-08T11:23:43;12.93;;;11.37;;
48861;SDS011;34681;49.188;-0.374;2023-04-08T11:26:09;8.30;;;7.60;;
48861;SDS011;34681;49.188;-0.374;2023-04-08T11:28:35;16.50;;;14.77;;
48861;SDS011;34681;49.188;-0.374;2023-04-08T11:31:01;8.90;;;6.57;;
48861;SDS011;34681;49.188;-0.374;2023-04-08T11:33:30;6.33;;;5.70;;
48861;SDS011;34681;49.188;-0.374;2023-04-08T11:35:56;9.13;;;7.20;;
48861;SDS011;34681;49.188;-0.374;2023-04-08T11:38:22;6.00;;;5.60;;
48861;SDS011;34681;49.188;-0.374;2023-04-08T11:40:55;6.77;;;5.90;;
48861;SDS011;34681;49.188;-0.374;2023-04-08T11:43:22;5.67;;;5.27;;
48861;SDS011;34681;49.188;-0.374;2023-04-08T11:45:49;6.77;;;6.07;;
48861;SDS011;34681;49.188;-0.374;2023-04-08T11:48:15;8.20;;;6.07;;
48861;SDS011;34681;49.188;-0.374;2023-04-08T11:50:41;8.07;;;6.80;;
48861;SDS011;34681;49.188;-0.374;2023-04-08T11:53:21;5.80;;;5.40;;
48861;SDS011;34681;49.188;-0.374;2023-04-08T11:55:49;6.73;;;6.07;;
48861;SDS011;34681;49.188;-0.374;2023-04-08T11:58:15;5.77;;;5.27;;
48861;SDS011;34681;49.188;-0.374;2023-04-08T12:00:40;5.97;;;5.47;;
48861;SDS011;34681;49.188;-0.374;2023-04-08T12:03:06;7.50;;;5.40;;
48861;SDS011;34681;49.188;-0.374;2023-04-08T12:05:32;7.80;;;6.23;;
48861;SDS011;34681;49.188;-0.374;2023-04-08T12:07:58;6.83;;;5.83;;
48861;SDS011;34681;49.188;-0.374;2023-04-08T12:10:23;6.53;;;5.47;;
48861;SDS011;34681;49.188;-0.374;2023-04-08T12:12:51;6.10;;;5.20;;
48861;SDS011;34681;49.188;-0.374;2023-04-08T12:15:17;4.80;;;4.43;;
48861;SDS011;34681;49.188;-0.374;2023-04-08T12:17:43;6.03;;;5.43;;
48861;SDS011;34681;49.188;-0.374;2023-04-08T12:20:09;5.20;;;4.80;;
48861;SDS011;34681;49.188;-0.374;2023-04-08T12:22:35;12.73;;;6.67;;
48861;SDS011;34681;49.188;-0.374;2023-04-08T12:25:01;5.90;;;4.53;;
48861;SDS011;34681;49.188;-0.374;2023-04-08T12:27:28;6.30;;;5.20;;
48861;SDS011;34681;49.188;-0.374;2023-04-08T12:29:53;4.83;;;4.40;;
48861;SDS011;34681;49.188;-0.374;2023-04-08T12:32:19;5.30;;;4.90;;
48861;SDS011;34681;49.188;-0.374;2023-04-08T12:34:45;5.37;;;4.97;;
48861;SDS011;34681;49.188;-0.374;2023-04-08T12:37:10;5.77;;;5.13;;
48861;SDS011;34681;49.188;-0.374;2023-04-08T12:39:36;4.80;;;4.40;;
48861;SDS011;34681;49.188;-0.374;2023-04-08T12:42:02;5.33;;;4.93;;
48861;SDS011;34681;49.188;-0.374;2023-04-08T12:44:28;6.17;;;5.50;;
48861;SDS011;34681;49.188;-0.374;2023-04-08T12:46:54;6.20;;;4.80;;
48861;SDS011;34681;49.188;-0.374;2023-04-08T12:49:20;5.03;;;4.63;;
48861;SDS011;34681;49.188;-0.374;2023-04-08T12:51:45;5.10;;;4.70;;
48861;SDS011;34681;49.188;-0.374;2023-04-08T12:54:11;4.97;;;4.53;;
48861;SDS011;34681;49.188;-0.374;2023-04-08T12:56:37;9.03;;;5.53;;
48861;SDS011;34681;49.188;-0.374;2023-04-08T12:59:03;9.33;;;3.97;;
48861;SDS011;34681;49.188;-0.374;2023-04-08T13:01:28;7.40;;;4.80;;
48861;SDS011;34681;49.188;-0.374;2023-04-08T13:03:54;5.77;;;5.27;;
48861;SDS011;34681;49.188;-0.374;2023-04-08T13:06:19;5.70;;;5.20;;
48861;SDS011;34681;49.188;-0.374;2023-04-08T13:08:45;5.30;;;4.80;;
48861;SDS011;34681;49.188;-0.374;2023-04-08T13:11:11;5.83;;;5.17;;
48861;SDS011;34681;49.188;-0.374;2023-04-08T13:13:36;5.10;;;4.50;;
48861;SDS011;34681;49.188;-0.374;2023-04-08T13:16:02;4.90;;;4.50;;
48861;SDS011;34681;49.188;-0.374;2023-04-08T13:18:28;5.13;;;4.57;;
48861;SDS011;34681;49.188;-0.374;2023-04-08T13:20:53;5.53;;;5.03;;
48861;SDS011;34681;49.188;-0.374;2023-04-08T13:23:19;6.30;;;5.70;;
48861;SDS011;34681;49.188;-0.374;2023-04-08T13:25:46;6.40;;;5.80;;
48861;SDS011;34681;49.188;-0.374;2023-04-08T13:28:11;6.40;;;5.83;;
48861;SDS011;34681;49.188;-0.374;2023-04-08T13:30:36;5.90;;;5.43;;
48861;SDS011;34681;49.188;-0.374;2023-04-08T13:33:02;6.27;;;5.70;;
48861;SDS011;34681;49.188;-0.374;2023-04-08T13:35:27;6.43;;;4.90;;
48861;SDS011;34681;49.188;-0.374;2023-04-08T13:37:53;5.70;;;5.20;;
48861;SDS011;34681;49.188;-0.374;2023-04-08T13:40:18;6.03;;;5.40;;
48861;SDS011;34681;49.188;-0.374;2023-04-08T13:42:43;7.87;;;6.50;;
48861;SDS011;34681;49.188;-0.374;2023-04-08T13:45:09;7.40;;;6.80;;
48861;SDS011;34681;49.188;-0.374;2023-04-08T13:47:34;7.70;;;7.10;;
48861;SDS011;34681;49.188;-0.374;2023-04-08T13:50:00;14.17;;;7.93;;
48861;SDS011;34681;49.188;-0.374;2023-04-08T13:52:26;7.43;;;6.70;;
48861;SDS011;34681;49.188;-0.374;2023-04-08T13:54:51;11.30;;;7.77;;
48861;SDS011;34681;49.188;-0.374;2023-04-08T13:57:16;6.83;;;6.33;;
48861;SDS011;34681;49.188;-0.374;2023-04-08T13:59:42;6.57;;;6.10;;
48861;SDS011;34681;49.188;-0.374;2023-04-08T14:02:07;8.17;;;7.47;;
48861;SDS011;34681;49.188;-0.374;2023-04-08T14:04:32;8.50;;;7.67;;
48861;SDS011;34681;49.188;-0.374;2023-04-08T14:06:58;11.03;;;9.00;;
48861;SDS011;34681;49.188;-0.374;2023-04-08T14:09:23;9.53;;;8.33;;
48861;SDS011;34681;49.188;-0.374;2023-04-08T14:11:49;8.00;;;7.20;;
48861;SDS011;34681;49.188;-0.374;2023-04-08T14:14:14;12.03;;;8.33;;
48861;SDS011;34681;49.188;-0.374;2023-04-08T14:16:40;9.53;;;8.47;;
48861;SDS011;34681;49.188;-0.374;2023-04-08T14:19:05;7.40;;;6.90;;
48861;SDS011;34681;49.188;-0.374;2023-04-08T14:21:31;7.73;;;7.00;;
48861;SDS011;34681;49.188;-0.374;2023-04-08T14:23:57;7.60;;;6.30;;
48861;SDS011;34681;49.188;-0.374;2023-04-08T14:26:22;11.43;;;7.60;;
48861;SDS011;34681;49.188;-0.374;2023-04-08T14:28:48;7.87;;;6.97;;
48861;SDS011;34681;49.188;-0.374;2023-04-08T14:31:14;8.33;;;6.83;;
48861;SDS011;34681;49.188;-0.374;2023-04-08T14:33:39;6.30;;;5.87;;
48861;SDS011;34681;49.188;-0.374;2023-04-08T14:36:06;8.83;;;8.00;;
48861;SDS011;34681;49.188;-0.374;2023-04-08T14:38:32;6.30;;;5.70;;
48861;SDS011;34681;49.188;-0.374;2023-04-08T14:40:57;12.37;;;6.97;;
48861;SDS011;34681;49.188;-0.374;2023-04-08T14:43:22;6.77;;;6.27;;
48861;SDS011;34681;49.188;-0.374;2023-04-08T14:45:51;10.80;;;6.90;;
48861;SDS011;34681;49.188;-0.374;2023-04-08T14:48:16;10.50;;;7.13;;
48861;SDS011;34681;49.188;-0.374;2023-04-08T14:50:42;6.80;;;6.23;;